Terminal Aerodrome Forecast
Issued by NWS Des Moines, IA

Current Version | Previous Version | Text Only | Print | Product List | Glossary On
Versions: 1 2 3 4 5 6 7 8 9 10 11 12 13 14 15 16 17 18 19 20 21 22 23 24 25 26 27 28 29 30 31 32 33 34 35 36 37 38 39 40 41 42 43 44 45 46 47 48 49 50
443
FTUS43 KDMX 192340
TAFALO
TAF
KALO 192340Z 2000/2024 10008KT 2SM -RA BR SCT005 BKN035
     FM200200 12006KT 1SM BR OVC006
     FM200400 12005KT 1/2SM -DZ FG OVC003
     FM200600 11004KT 1/4SM DZ FG OVC002
     FM201600 VRB03KT 3/4SM -DZ OVC002
     FM201900 09006KT 3SM BR OVC010
     FM202300 12006KT 1SM BR OVC008=

USA.gov is the U.S. government's official web portal to all federal, state and local government web resources and services.